createdAt,value
2018-03-02T00:00:01.385Z,0.1
2018-03-02T00:15:01.436Z,0.1
2018-03-02T00:30:03.476Z,0.1
2018-03-02T00:45:01.401Z,0.1
2018-03-02T05:19:02.122Z,0.1
2018-03-02T05:21:01.081Z,0.2
2018-03-02T05:22:01.331Z,0.3
2018-03-02T05:24:01.096Z,0.4
2018-03-02T05:25:01.092Z,0.5
2018-03-02T05:27:01.329Z,0.6
2018-03-02T05:28:01.145Z,0.7
2018-03-02T05:30:05.134Z,0.9
2018-03-02T05:31:01.095Z,1.0
2018-03-02T05:32:01.328Z,1.1
2018-03-02T05:33:01.063Z,1.3
2018-03-02T05:34:01.062Z,1.4
2018-03-02T05:35:01.066Z,1.6
2018-03-02T05:36:01.062Z,1.8
2018-03-02T05:37:01.291Z,2.1
2018-03-02T05:38:01.065Z,2.4
2018-03-02T05:39:01.125Z,2.8
2018-03-02T05:40:01.091Z,3.3
2018-03-02T05:41:01.098Z,3.9
2018-03-02T05:42:01.266Z,4.5
2018-03-02T05:43:01.068Z,5.3
2018-03-02T05:44:01.124Z,6.3
2018-03-02T05:45:01.063Z,7.3
2018-03-02T05:46:01.098Z,8.6
2018-03-02T05:47:01.302Z,10.0
2018-03-02T05:48:01.102Z,11.6
2018-03-02T05:49:01.090Z,13.4
2018-03-02T05:50:01.129Z,15.3
2018-03-02T05:51:01.067Z,17.5
2018-03-02T05:52:01.267Z,20.0
2018-03-02T05:53:01.063Z,22.9
2018-03-02T05:54:01.127Z,26.5
2018-03-02T05:55:01.076Z,30.6
2018-03-02T05:56:01.098Z,35.1
2018-03-02T05:57:01.264Z,40.4
2018-03-02T05:58:01.067Z,46.4
2018-03-02T05:59:01.091Z,53.7
2018-03-02T06:00:01.132Z,63.1
2018-03-02T06:01:01.126Z,73.3
2018-03-02T06:02:01.270Z,84.7
2018-03-02T06:03:01.102Z,97.2
2018-03-02T06:04:01.067Z,112.1
2018-03-02T06:05:01.077Z,128.1
2018-03-02T06:06:01.095Z,146.3
2018-03-02T06:07:01.306Z,167.4
2018-03-02T06:08:01.074Z,188.7
2018-03-02T06:09:01.099Z,211.7
2018-03-02T06:10:01.135Z,236.1
2018-03-02T06:11:01.067Z,261.3
2018-03-02T06:13:01.053Z,289.3
2018-03-02T06:14:01.050Z,318.7
2018-03-02T06:15:01.081Z,348.1
2018-03-02T06:16:01.056Z,377.1
2018-03-02T06:17:01.261Z,406.0
2018-03-02T06:18:01.091Z,433.6
2018-03-02T06:19:01.054Z,460.9
2018-03-02T06:20:01.128Z,485.4
2018-03-02T06:21:01.088Z,508.0
2018-03-02T06:22:01.270Z,528.3
2018-03-02T06:23:01.058Z,546.1
2018-03-02T06:24:01.055Z,565.5
2018-03-02T06:25:01.120Z,586.6
2018-03-02T06:26:01.123Z,610.3
2018-03-02T06:27:01.232Z,634.5
2018-03-02T06:28:01.065Z,657.5
2018-03-02T06:29:01.058Z,679.6
2018-03-02T06:30:01.091Z,701.9
2018-03-02T06:31:01.085Z,723.9
2018-03-02T06:32:01.303Z,747.3
2018-03-02T06:33:01.124Z,772.7
2018-03-02T06:34:01.058Z,796.3
2018-03-02T06:35:01.065Z,821.3
2018-03-02T06:36:01.059Z,850.3
2018-03-02T06:37:01.277Z,881.0
2018-03-02T06:38:01.129Z,912.3
2018-03-02T06:39:01.097Z,946.1
2018-03-02T06:40:01.061Z,976.8
2018-03-02T06:41:01.059Z,1002.3
2018-03-02T06:42:01.269Z,1029.4
2018-03-02T06:43:01.118Z,1060.2
2018-03-02T06:44:01.093Z,1097.2
2018-03-02T06:45:01.071Z,1142.1
2018-03-02T06:46:01.073Z,1196.0
2018-03-02T06:47:01.338Z,1254.1
2018-03-02T06:48:01.093Z,1324.7
2018-03-02T06:49:01.102Z,1407.6
2018-03-02T06:50:01.099Z,1498.1
2018-03-02T06:51:01.095Z,1588.1
2018-03-02T06:52:01.307Z,1685.9
2018-03-02T06:53:01.101Z,1787.4
2018-03-02T06:54:01.100Z,1887.1
2018-03-02T06:55:01.072Z,1986.1
2018-03-02T06:56:01.123Z,2078.3
2018-03-02T06:57:01.289Z,2170.3
2018-03-02T06:58:01.124Z,2256.1
2018-03-02T06:59:01.075Z,2342.3
2018-03-02T07:00:01.104Z,2424.0
2018-03-02T07:02:01.290Z,2487.3
2018-03-02T07:03:01.079Z,2547.0
2018-03-02T07:04:01.085Z,2601.2
2018-03-02T07:05:01.083Z,2646.3
2018-03-02T07:06:01.088Z,2664.0
2018-03-02T07:07:01.334Z,2667.1
2018-03-02T07:08:01.054Z,2656.2
2018-03-02T07:09:01.057Z,2637.7
2018-03-02T07:10:01.054Z,2626.4
2018-03-02T07:11:01.052Z,2632.7
2018-03-02T07:12:01.319Z,2644.0
2018-03-02T07:13:01.055Z,2652.9
2018-03-02T07:14:01.059Z,2666.3
2018-03-02T07:15:01.063Z,2679.5
2018-03-02T07:16:01.054Z,2695.9
2018-03-02T07:17:01.286Z,2726.9
2018-03-02T07:18:01.053Z,2774.0
2018-03-02T07:19:01.091Z,2828.4
2018-03-02T07:20:01.098Z,2893.1
2018-03-02T07:21:01.053Z,2970.8
2018-03-02T07:22:01.259Z,3057.3
2018-03-02T07:23:01.089Z,3142.1
2018-03-02T07:24:01.089Z,3231.9
2018-03-02T07:25:01.079Z,3328.7
2018-03-02T07:26:01.167Z,3416.5
2018-03-02T07:27:01.263Z,3547.7
2018-03-02T07:28:01.067Z,3711.3
2018-03-02T07:29:01.063Z,3851.1
2018-03-02T07:30:01.120Z,4004.7
2018-03-02T07:31:01.087Z,4194.7
2018-03-02T07:32:01.268Z,4399.7
2018-03-02T07:33:01.090Z,4601.3
2018-03-02T07:34:01.091Z,4787.5
2018-03-02T07:35:01.124Z,4948.3
2018-03-02T07:36:01.065Z,5101.5
2018-03-02T07:37:01.267Z,5268.8
2018-03-02T07:38:01.060Z,5451.5
2018-03-02T07:39:01.066Z,5655.1
2018-03-02T07:40:01.125Z,5832.3
2018-03-02T07:41:01.066Z,6007.9
2018-03-02T07:42:01.297Z,6159.1
2018-03-02T07:43:01.076Z,6304.3
2018-03-02T07:44:01.072Z,6473.8
2018-03-02T07:45:01.099Z,6638.6
2018-03-02T07:46:01.095Z,6765.8
2018-03-02T07:47:01.268Z,6872.3
2018-03-02T07:48:01.060Z,6948.5
2018-03-02T07:49:01.097Z,7002.0
2018-03-02T07:50:01.144Z,7046.7
2018-03-02T07:51:01.067Z,7091.8
2018-03-02T07:52:01.267Z,7124.6
2018-03-02T07:53:01.069Z,7157.3
2018-03-02T07:54:01.093Z,7176.3
2018-03-02T07:55:01.091Z,7217.3
2018-03-02T07:56:01.101Z,7272.4
2018-03-02T07:57:01.315Z,7325.9
2018-03-02T07:58:01.129Z,7370.4
2018-03-02T07:59:01.103Z,7429.1
2018-03-02T08:00:01.087Z,7484.7
2018-03-02T08:01:01.069Z,7547.5
2018-03-02T08:02:01.269Z,7618.6
2018-03-02T08:03:01.103Z,7725.2
2018-03-02T08:04:01.063Z,7862.2
2018-03-02T08:05:01.148Z,8034.3
2018-03-02T08:06:01.071Z,8232.4
2018-03-02T08:07:01.268Z,8466.3
2018-03-02T08:08:01.064Z,8713.1
2018-03-02T08:09:01.070Z,8958.5
2018-03-02T08:10:01.131Z,9209.7
2018-03-02T08:11:01.064Z,9463.2
2018-03-02T08:12:01.297Z,9712.2
2018-03-02T08:13:01.105Z,9928.6
2018-03-02T08:14:01.100Z,10111.5
2018-03-02T08:15:01.089Z,10304.9
2018-03-02T08:16:01.073Z,10493.9
2018-03-02T08:17:01.306Z,10669.5
2018-03-02T08:18:01.097Z,10848.9
2018-03-02T08:19:01.097Z,11017.5
2018-03-02T08:20:01.100Z,11179.7
2018-03-02T08:21:01.069Z,11338.9
2018-03-02T08:22:01.302Z,11458.7
2018-03-02T08:23:01.072Z,11583.1
2018-03-02T08:24:01.066Z,11708.3
2018-03-02T08:25:01.123Z,11820.6
2018-03-02T08:26:01.132Z,11920.4
2018-03-02T08:27:01.307Z,12016.5
2018-03-02T08:28:01.075Z,12148.5
2018-03-02T08:29:01.102Z,12287.9
2018-03-02T08:31:01.100Z,12351.6
2018-03-02T08:32:01.290Z,12447.1
2018-03-02T08:33:01.090Z,12509.3
2018-03-02T08:34:01.055Z,12552.4
2018-03-02T08:35:01.052Z,12627.5
2018-03-02T08:36:01.057Z,12686.5
2018-03-02T08:37:01.287Z,12738.2
2018-03-02T08:38:01.089Z,12785.8
2018-03-02T08:39:01.054Z,12856.7
2018-03-02T08:40:01.061Z,12882.4
2018-03-02T08:41:01.086Z,12859.4
2018-03-02T08:42:01.293Z,12763.7
2018-03-02T08:43:01.061Z,12643.9
2018-03-02T08:44:01.087Z,12520.7
2018-03-02T08:45:01.088Z,12425.0
2018-03-02T08:46:01.054Z,12408.5
2018-03-02T08:47:01.324Z,12300.5
2018-03-02T08:48:01.088Z,12183.1
2018-03-02T08:49:01.087Z,12044.9
2018-03-02T08:50:01.065Z,11900.1
2018-03-02T08:51:01.056Z,11759.2
2018-03-02T08:52:01.325Z,11634.9
2018-03-02T08:53:01.064Z,11494.1
2018-03-02T08:54:01.094Z,11287.9
2018-03-02T08:55:01.066Z,11150.1
2018-03-02T08:56:01.062Z,11056.2
2018-03-02T08:57:01.434Z,11025.9
2018-03-02T08:58:01.058Z,11016.5
2018-03-02T08:59:01.092Z,11015.1
2018-03-02T09:00:01.068Z,11017.1
2018-03-02T09:01:01.090Z,11014.1
2018-03-02T09:02:01.296Z,11053.3
2018-03-02T09:03:01.069Z,11160.2
2018-03-02T09:04:01.062Z,11290.6
2018-03-02T09:05:01.070Z,11428.1
2018-03-02T09:06:01.083Z,11571.2
2018-03-02T09:07:01.268Z,11683.9
2018-03-02T09:08:01.094Z,11831.8
2018-03-02T09:09:01.126Z,11959.3
2018-03-02T09:10:01.070Z,12095.5
2018-03-02T09:11:01.062Z,12239.9
2018-03-02T09:12:01.310Z,12364.1
2018-03-02T09:13:01.066Z,12469.1
2018-03-02T09:14:01.094Z,12533.7
2018-03-02T09:15:01.105Z,12567.0
2018-03-02T09:16:01.098Z,12563.1
2018-03-02T09:17:01.300Z,12569.7
2018-03-02T09:18:01.066Z,12554.4
2018-03-02T09:19:01.217Z,12534.2
2018-03-02T09:20:01.103Z,12485.7
2018-03-02T09:21:01.119Z,12447.0
2018-03-02T09:23:01.385Z,12617.3
2018-03-02T09:24:01.053Z,12777.8
2018-03-02T09:25:01.127Z,12920.2
2018-03-02T09:26:01.049Z,13046.9
2018-03-02T09:27:01.058Z,13172.3
2018-03-02T09:28:01.287Z,13331.1
2018-03-02T09:29:01.096Z,13561.3
2018-03-02T09:30:01.104Z,13886.3
2018-03-02T09:31:01.084Z,14199.5
2018-03-02T09:32:01.373Z,14516.5
2018-03-02T09:33:01.295Z,14875.0
2018-03-02T09:34:01.052Z,15242.3
2018-03-02T09:35:01.085Z,15675.6
2018-03-02T09:36:01.057Z,16189.7
2018-03-02T09:37:01.385Z,16696.1
2018-03-02T09:38:01.302Z,16986.5
2018-03-02T09:39:01.053Z,17295.9
2018-03-02T09:40:01.062Z,17703.6
2018-03-02T09:41:01.094Z,18148.5
2018-03-02T09:42:01.123Z,18558.3
2018-03-02T09:43:01.300Z,18938.2
2018-03-02T09:44:01.073Z,19296.3
2018-03-02T09:45:01.090Z,19561.2
2018-03-02T09:46:01.094Z,19865.7
2018-03-02T09:47:01.127Z,20178.8
2018-03-02T09:48:01.294Z,20399.0
2018-03-02T09:49:01.088Z,20633.9
2018-03-02T09:50:01.053Z,20761.1
2018-03-02T09:51:01.089Z,20723.9
2018-03-02T09:52:01.125Z,20656.0
2018-03-02T09:53:01.306Z,20581.5
2018-03-02T09:54:01.107Z,20510.1
2018-03-02T09:55:01.087Z,20420.1
2018-03-02T09:56:01.089Z,20284.7
2018-03-02T09:57:01.088Z,20173.7
2018-03-02T09:58:01.268Z,20174.3
2018-03-02T09:59:01.087Z,20204.3
2018-03-02T10:00:01.085Z,20341.9
2018-03-02T10:01:01.094Z,20539.4
2018-03-02T10:02:01.093Z,20829.1
2018-03-02T10:03:01.274Z,21326.2
2018-03-02T10:04:01.065Z,21817.3
2018-03-02T10:05:01.089Z,22416.7
2018-03-02T10:06:01.091Z,23162.3
2018-03-02T10:07:01.067Z,23834.8
2018-03-02T10:08:01.314Z,24545.3
2018-03-02T10:09:01.102Z,25289.7
2018-03-02T10:10:01.120Z,26217.2
2018-03-02T10:11:01.069Z,27170.7
2018-03-02T10:12:01.063Z,28047.5
2018-03-02T10:13:01.311Z,28751.2
2018-03-02T10:14:01.062Z,29212.6
2018-03-02T10:15:01.088Z,29458.9
2018-03-02T10:16:01.119Z,29649.6
2018-03-02T10:17:01.062Z,29839.3
2018-03-02T10:18:01.269Z,29839.5
2018-03-02T10:19:01.073Z,29778.3
2018-03-02T10:20:01.103Z,29597.7
2018-03-02T10:21:01.093Z,29291.7
2018-03-02T10:22:01.092Z,29117.3
2018-03-02T10:23:01.360Z,28991.9
2018-03-02T10:24:01.065Z,28863.7
2018-03-02T10:25:01.065Z,28662.4
2018-03-02T10:26:01.097Z,28434.7
2018-03-02T10:27:01.061Z,28470.9
2018-03-02T10:28:06.337Z,28890.1
2018-03-02T10:29:01.070Z,29575.8
2018-03-02T10:30:01.064Z,30064.1
2018-03-02T10:31:01.131Z,29943.5
2018-03-02T10:32:01.064Z,29590.9
2018-03-02T10:33:01.297Z,29367.5
2018-03-02T10:34:01.070Z,29334.6
2018-03-02T10:35:01.068Z,29449.1
2018-03-02T10:36:01.138Z,29671.0
2018-03-02T10:37:01.062Z,29964.1
2018-03-02T10:38:01.289Z,30060.7
2018-03-02T10:39:01.103Z,30155.1
2018-03-02T10:40:01.096Z,30001.7
2018-03-02T10:41:01.103Z,29746.9
2018-03-02T10:43:01.391Z,29285.0
2018-03-02T10:44:01.049Z,28565.5
2018-03-02T10:45:01.048Z,27778.0
2018-03-02T10:46:01.051Z,27289.0
2018-03-02T10:47:01.082Z,27344.3
2018-03-02T10:48:01.293Z,27393.1
2018-03-02T10:49:01.085Z,27262.1
2018-03-02T10:50:01.047Z,26971.9
2018-03-02T10:51:01.063Z,26695.1
2018-03-02T10:52:01.050Z,26517.5
2018-03-02T10:53:01.383Z,26313.6
2018-03-02T10:54:01.104Z,26240.3
2018-03-02T10:55:01.083Z,25983.3
2018-03-02T10:56:01.052Z,25783.5
2018-03-02T10:57:01.084Z,25717.0
2018-03-02T10:58:01.322Z,25550.1
2018-03-02T10:59:01.050Z,25138.0
2018-03-02T11:00:01.090Z,24560.7
2018-03-02T11:01:01.056Z,23833.5
2018-03-02T11:02:01.085Z,23003.7
2018-03-02T11:03:01.325Z,22326.8
2018-03-02T11:04:01.086Z,21933.3
2018-03-02T11:05:01.124Z,21618.3
2018-03-02T11:06:01.110Z,21269.3
2018-03-02T11:07:01.052Z,20934.7
2018-03-02T11:08:01.320Z,20680.4
2018-03-02T11:09:01.087Z,20646.9
2018-03-02T11:10:01.054Z,21228.5
2018-03-02T11:11:01.091Z,22434.3
2018-03-02T11:12:01.055Z,24095.3
2018-03-02T11:13:01.308Z,25266.2
2018-03-02T11:14:01.095Z,26215.7
2018-03-02T11:15:01.056Z,28332.1
2018-03-02T11:16:01.124Z,30239.8
2018-03-02T11:17:01.057Z,33681.3
2018-03-02T11:18:01.306Z,37119.0
2018-03-02T11:19:01.057Z,40335.9
2018-03-02T11:20:01.096Z,43066.4
2018-03-02T11:21:01.126Z,43430.9
2018-03-02T11:22:01.111Z,44222.7
2018-03-02T11:23:01.322Z,44517.1
2018-03-02T11:24:01.055Z,45942.5
2018-03-02T11:25:01.063Z,45366.7
2018-03-02T11:26:01.092Z,44837.5
2018-03-02T11:27:01.088Z,45561.6
2018-03-02T11:28:01.299Z,46182.6
2018-03-02T11:29:01.102Z,48217.5
2018-03-02T11:30:01.058Z,48927.8
2018-03-02T11:31:01.089Z,49880.7
2018-03-02T11:32:01.063Z,48208.3
2018-03-02T11:33:01.270Z,47470.5
2018-03-02T11:34:01.059Z,46222.5
2018-03-02T11:35:01.065Z,46189.4
2018-03-02T11:36:01.128Z,48426.7
2018-03-02T11:37:01.070Z,50568.1
2018-03-02T11:38:01.300Z,50714.9
2018-03-02T11:39:01.093Z,51207.7
2018-03-02T11:40:01.094Z,52740.3
2018-03-02T11:41:01.063Z,54077.1
2018-03-02T11:42:01.093Z,53680.8
2018-03-02T11:43:01.304Z,53234.8
2018-03-02T11:44:01.094Z,52364.3
2018-03-02T11:45:01.063Z,51654.1
2018-03-02T11:46:01.097Z,49301.5
2018-03-02T11:47:01.092Z,49981.6
2018-03-02T11:48:01.308Z,49801.1
2018-03-02T11:49:01.151Z,49894.5
2018-03-02T11:50:01.132Z,49271.6
2018-03-02T11:51:01.095Z,48536.9
2018-03-02T11:52:01.066Z,45674.0
2018-03-02T11:53:01.310Z,46702.3
2018-03-02T11:54:01.099Z,45725.8
2018-03-02T11:56:01.123Z,45160.5
2018-03-02T11:57:01.050Z,44262.8
2018-03-02T11:58:01.321Z,43389.1
2018-03-02T11:59:01.084Z,43412.8
2018-03-02T12:00:01.055Z,42829.3
2018-03-02T12:01:01.048Z,42735.6
2018-03-02T12:02:01.091Z,44230.7
2018-03-02T12:03:01.257Z,43701.7
2018-03-02T12:04:01.099Z,42883.7
2018-03-02T12:05:01.113Z,41075.5
2018-03-02T12:06:01.052Z,40332.7
2018-03-02T12:07:01.052Z,39661.2
2018-03-02T12:08:01.348Z,40854.5
2018-03-02T12:09:01.093Z,40826.7
2018-03-02T12:10:01.082Z,40472.7
2018-03-02T12:11:01.050Z,40115.4
2018-03-02T12:12:01.082Z,39495.9
2018-03-02T12:13:01.289Z,39128.9
2018-03-02T12:14:01.085Z,38751.1
2018-03-02T12:15:01.085Z,38509.0
2018-03-02T12:16:01.051Z,36346.5
2018-03-02T12:17:01.059Z,35018.3
2018-03-02T12:18:01.256Z,34556.1
2018-03-02T12:19:01.058Z,33358.4
2018-03-02T12:20:01.050Z,34331.9
2018-03-02T12:21:01.117Z,33746.7
2018-03-02T12:22:01.056Z,33296.3
2018-03-02T12:23:01.261Z,32455.9
2018-03-02T12:24:01.087Z,31930.3
2018-03-02T12:25:01.096Z,32621.4
2018-03-02T12:26:01.090Z,32458.7
2018-03-02T12:27:01.052Z,32329.5
2018-03-02T12:28:01.259Z,31881.1
2018-03-02T12:29:01.058Z,31090.4
2018-03-02T12:30:01.085Z,30517.1
2018-03-02T12:31:01.091Z,31968.9
2018-03-02T12:32:01.114Z,32426.2
2018-03-02T12:33:01.259Z,31878.8
2018-03-02T12:34:01.088Z,32857.6
2018-03-02T12:35:01.086Z,32767.7
2018-03-02T12:36:01.093Z,32758.3
2018-03-02T12:37:01.081Z,32540.2
2018-03-02T12:38:01.258Z,32858.1
2018-03-02T12:39:01.119Z,32341.5
2018-03-02T12:40:01.091Z,31221.2
2018-03-02T12:41:01.058Z,31820.7
2018-03-02T12:42:01.068Z,31775.8
2018-03-02T12:43:01.312Z,31480.9
2018-03-02T12:44:01.127Z,31570.4
2018-03-02T12:45:01.057Z,31225.7
2018-03-02T12:46:01.100Z,30441.2
2018-03-02T12:47:01.062Z,30142.0
2018-03-02T12:48:01.299Z,30936.9
2018-03-02T12:49:01.121Z,30483.5
2018-03-02T12:50:01.060Z,30015.9
2018-03-02T12:51:01.056Z,30029.3
2018-03-02T12:52:01.060Z,30685.1
2018-03-02T12:53:01.277Z,30612.5
2018-03-02T12:54:01.124Z,30369.1
2018-03-02T12:55:01.097Z,30107.6
2018-03-02T12:56:01.065Z,29531.1
2018-03-02T12:57:01.095Z,30586.5
2018-03-02T12:58:01.296Z,31463.9
2018-03-02T12:59:01.131Z,32173.1
2018-03-02T13:00:01.060Z,32636.5
2018-03-02T13:01:01.066Z,32713.5
2018-03-02T13:02:01.093Z,32836.2
2018-03-02T13:03:01.301Z,32946.2
2018-03-02T13:04:01.131Z,33174.8
2018-03-02T13:05:01.058Z,33659.7
2018-03-02T13:06:01.065Z,34137.6
2018-03-02T13:07:01.095Z,34381.5
2018-03-02T13:08:01.345Z,34884.1
2018-03-02T13:09:01.103Z,35291.9
2018-03-02T13:10:01.064Z,35466.9
2018-03-02T13:11:01.066Z,34927.5
2018-03-02T13:12:01.103Z,33899.7
2018-03-02T13:25:02.925Z,51064.0
2018-03-02T13:26:00.657Z,48707.0
2018-03-02T13:27:00.595Z,46846.0
2018-03-02T13:28:00.565Z,45019.8
2018-03-02T13:29:00.566Z,43162.6
2018-03-02T13:30:00.808Z,41834.2
2018-03-02T13:31:00.608Z,41029.4
2018-03-02T13:32:00.602Z,40246.1
2018-03-02T13:33:00.564Z,39195.8
2018-03-02T13:34:00.573Z,38435.8
2018-03-02T13:35:00.774Z,37856.5
2018-03-02T13:36:00.627Z,37516.3
2018-03-02T13:37:00.571Z,37311.7
2018-03-02T13:38:00.573Z,37451.0
2018-03-02T13:39:00.586Z,37314.2
2018-03-02T13:40:00.801Z,36133.8
2018-03-02T13:41:00.570Z,35339.5
2018-03-02T13:42:00.572Z,34810.4
2018-03-02T13:43:00.578Z,34486.9
2018-03-02T13:44:00.604Z,34504.1
2018-03-02T13:45:00.808Z,34457.4
2018-03-02T13:46:00.573Z,34359.1
2018-03-02T13:47:00.572Z,34415.2
2018-03-02T13:48:00.576Z,34655.3
2018-03-02T13:49:00.579Z,34648.1
2018-03-02T13:50:00.835Z,34543.4
2018-03-02T13:51:00.602Z,34503.3
2018-03-02T13:52:00.586Z,34469.3
2018-03-02T13:53:00.570Z,34109.1
2018-03-02T13:54:00.603Z,33913.7
2018-03-02T13:55:00.845Z,33841.1
2018-03-02T13:56:00.612Z,33651.5
2018-03-02T13:57:00.626Z,33369.3
2018-03-02T13:58:00.621Z,33113.3
2018-03-02T13:59:00.612Z,32742.5
2018-03-02T14:00:00.815Z,32487.3
2018-03-02T14:01:00.606Z,32263.1
2018-03-02T14:02:00.607Z,32008.4
2018-03-02T14:03:00.603Z,31866.5
2018-03-02T14:04:00.607Z,31927.4
2018-03-02T14:05:00.814Z,32068.1
2018-03-02T14:06:00.606Z,32039.4
2018-03-02T14:07:00.634Z,31925.1
2018-03-02T14:08:00.578Z,31836.5
2018-03-02T14:09:00.609Z,31842.1
2018-03-02T14:10:00.869Z,31852.7
2018-03-02T14:11:00.581Z,31913.9
2018-03-02T14:12:00.607Z,31993.8
2018-03-02T14:13:00.577Z,32060.7
2018-03-02T14:14:00.614Z,32131.6
2018-03-02T14:15:00.811Z,32156.4
2018-03-02T14:16:00.610Z,32140.6
2018-03-02T14:17:00.612Z,32106.1
2018-03-02T14:18:00.576Z,32051.8
2018-03-02T14:19:00.612Z,31986.7
2018-03-02T14:20:00.822Z,31899.4
2018-03-02T14:21:00.611Z,31773.2
2018-03-02T14:22:00.640Z,31569.4
2018-03-02T14:23:00.575Z,31361.7
2018-03-02T14:24:00.608Z,31217.8
2018-03-02T14:25:00.788Z,31105.1
2018-03-02T14:26:00.648Z,30925.1
2018-03-02T14:27:00.635Z,30696.8
2018-03-02T14:28:00.580Z,30443.4
2018-03-02T14:29:00.610Z,30486.8
2018-03-02T14:30:00.779Z,30610.0
2018-03-02T14:31:00.610Z,30544.7
2018-03-02T14:32:00.637Z,30402.7
2018-03-02T14:33:00.608Z,30299.1
2018-03-02T14:34:00.580Z,30165.5
2018-03-02T14:35:00.813Z,29996.7
2018-03-02T14:36:00.579Z,29820.1
2018-03-02T14:37:00.617Z,29741.5
2018-03-02T14:38:00.612Z,29585.1
2018-03-02T14:39:00.577Z,29315.0
2018-03-02T14:40:00.812Z,28981.3
2018-03-02T14:41:00.611Z,28715.8
2018-03-02T14:42:00.651Z,28555.6
2018-03-02T14:43:00.589Z,28439.1
2018-03-02T14:44:00.594Z,28102.2
2018-03-02T14:45:00.816Z,27674.5
2018-03-02T14:46:00.612Z,27366.2
2018-03-02T14:47:00.646Z,27096.9
2018-03-02T14:48:00.614Z,26753.0
2018-03-02T14:49:00.618Z,26493.0
2018-03-02T14:50:00.880Z,26355.1
2018-03-02T14:51:00.580Z,26280.5
2018-03-02T14:52:00.616Z,26100.3
2018-03-02T14:53:00.617Z,25997.9
2018-03-02T14:54:00.620Z,26067.8
2018-03-02T14:55:00.786Z,26411.1
2018-03-02T14:56:00.614Z,26731.9
2018-03-02T14:57:00.617Z,26846.8
2018-03-02T14:58:00.603Z,26867.7
2018-03-02T14:59:00.618Z,26716.0
2018-03-02T15:00:00.816Z,26591.1
2018-03-02T15:01:00.620Z,26589.9
2018-03-02T15:02:00.617Z,26658.5
2018-03-02T15:03:00.640Z,26714.1
2018-03-02T15:04:00.588Z,26614.1
2018-03-02T15:05:00.856Z,26316.1
2018-03-02T15:06:00.617Z,25860.2
2018-03-02T15:07:00.616Z,25420.6
2018-03-02T15:08:00.584Z,24929.1
2018-03-02T15:09:00.636Z,24280.3
2018-03-02T15:10:00.857Z,23313.3
2018-03-02T15:11:00.616Z,22297.2
2018-03-02T15:12:00.589Z,21461.0
2018-03-02T15:13:00.589Z,20631.0
2018-03-02T15:14:00.670Z,19840.3
2018-03-02T15:15:00.838Z,18993.3
2018-03-02T15:16:00.619Z,18060.1
2018-03-02T15:17:00.618Z,17083.8
2018-03-02T15:18:00.621Z,16148.9
2018-03-02T15:19:00.643Z,15325.5
2018-03-02T15:20:00.789Z,14636.1
2018-03-02T15:21:00.586Z,14046.1
2018-03-02T15:22:00.634Z,13572.7
2018-03-02T15:23:00.672Z,13084.7
2018-03-02T15:24:00.617Z,12602.5
2018-03-02T15:25:00.833Z,12187.2
2018-03-02T15:26:00.623Z,11869.6
2018-03-02T15:27:00.627Z,11543.5
2018-03-02T15:28:00.657Z,11325.1
2018-03-02T15:29:00.623Z,11229.3
2018-03-02T15:30:00.824Z,11271.2
2018-03-02T15:31:00.649Z,11331.2
2018-03-02T15:32:00.620Z,11387.1
2018-03-02T15:33:00.655Z,11405.5
2018-03-02T15:34:00.587Z,11392.6
2018-03-02T15:35:00.831Z,11381.6
2018-03-02T15:36:00.622Z,11361.1
2018-03-02T15:37:00.594Z,11254.5
2018-03-02T15:38:00.631Z,11214.1
2018-03-02T15:39:00.589Z,11161.5
2018-03-02T15:40:00.793Z,11065.1
2018-03-02T15:41:00.597Z,10891.9
2018-03-02T15:42:00.595Z,10732.4
2018-03-02T15:43:00.621Z,10610.5
2018-03-02T15:44:00.588Z,10529.7
2018-03-02T15:45:00.958Z,10406.5
2018-03-02T15:46:00.623Z,10240.5
2018-03-02T15:47:00.588Z,10091.4
2018-03-02T15:48:00.627Z,10044.4
2018-03-02T15:49:00.633Z,10105.1
2018-03-02T15:50:00.792Z,10112.5
2018-03-02T15:51:00.593Z,10193.1
2018-03-02T15:52:00.599Z,10265.7
2018-03-02T15:53:00.660Z,10340.7
2018-03-02T15:54:00.592Z,10448.1
2018-03-02T15:55:00.799Z,10598.1
2018-03-02T15:56:00.625Z,10719.8
2018-03-02T15:57:00.588Z,10811.1
2018-03-02T15:58:00.641Z,10867.3
2018-03-02T15:59:00.594Z,10879.6
2018-03-02T16:00:00.825Z,10810.4
2018-03-02T16:01:00.633Z,10774.7
2018-03-02T16:02:00.628Z,10779.1
2018-03-02T16:03:00.591Z,10736.6
2018-03-02T16:04:00.592Z,10687.1
2018-03-02T16:05:00.796Z,10647.1
2018-03-02T16:06:00.656Z,10543.2
2018-03-02T16:07:00.591Z,10434.8
2018-03-02T16:08:00.591Z,10257.3
2018-03-02T16:09:00.656Z,10008.5
2018-03-02T16:10:00.826Z,9758.1
2018-03-02T16:11:00.619Z,9568.7
2018-03-02T16:12:00.630Z,9324.7
2018-03-02T16:13:00.603Z,9027.7
2018-03-02T16:14:00.651Z,8694.9
2018-03-02T16:15:00.742Z,8423.8
2018-03-02T16:16:00.641Z,8171.3
2018-03-02T16:17:00.630Z,7876.3
2018-03-02T16:18:00.595Z,7545.8
2018-03-02T16:19:00.599Z,7131.7
2018-03-02T16:20:00.804Z,6736.5
2018-03-02T16:21:00.637Z,6354.9
2018-03-02T16:22:00.631Z,6022.2
2018-03-02T16:23:00.635Z,5758.5
2018-03-02T16:24:00.597Z,5547.7
2018-03-02T16:25:00.806Z,5348.1
2018-03-02T16:26:00.644Z,5149.4
2018-03-02T16:27:00.662Z,5005.9
2018-03-02T16:28:00.630Z,4880.5
2018-03-02T16:29:00.632Z,4734.8
2018-03-02T16:30:00.808Z,4571.1
2018-03-02T16:31:00.633Z,4389.5
2018-03-02T16:32:00.636Z,4190.5
2018-03-02T16:33:00.634Z,3999.6
2018-03-02T16:34:00.632Z,3799.0
2018-03-02T16:35:00.843Z,3595.0
2018-03-02T16:36:00.601Z,3398.3
2018-03-02T16:37:00.666Z,3203.0
2018-03-02T16:38:00.603Z,3008.2
2018-03-02T16:39:00.601Z,2828.1
2018-03-02T16:40:00.825Z,2648.3
2018-03-02T16:41:00.634Z,2473.5
2018-03-02T16:42:00.634Z,2312.2
2018-03-02T16:43:00.637Z,2156.1
2018-03-02T16:44:00.619Z,2006.9
2018-03-02T16:45:00.839Z,1866.1
2018-03-02T16:46:00.638Z,1735.3
2018-03-02T16:47:00.640Z,1608.5
2018-03-02T16:48:00.643Z,1486.8
2018-03-02T16:49:00.609Z,1378.6
2018-03-02T16:50:00.891Z,1284.5
2018-03-02T16:51:00.644Z,1201.1
2018-03-02T16:52:00.607Z,1123.0
2018-03-02T16:53:00.607Z,1051.8
2018-03-02T16:54:00.608Z,986.9
2018-03-02T16:55:00.846Z,931.5
2018-03-02T16:56:00.640Z,882.7
2018-03-02T16:57:00.640Z,833.9
2018-03-02T16:58:00.641Z,790.4
2018-03-02T16:59:00.610Z,753.6
2018-03-02T17:00:00.848Z,717.8
2018-03-02T17:01:00.608Z,685.1
2018-03-02T17:02:00.647Z,654.3
2018-03-02T17:03:00.641Z,621.3
2018-03-02T17:04:00.609Z,588.5
2018-03-02T17:05:00.851Z,552.1
2018-03-02T17:06:00.650Z,514.2
2018-03-02T17:07:00.607Z,476.0
2018-03-02T17:08:00.630Z,436.7
2018-03-02T17:09:00.611Z,400.3
2018-03-02T17:10:00.929Z,363.6
2018-03-02T17:11:00.606Z,325.4
2018-03-02T17:12:00.663Z,290.5
2018-03-02T17:13:00.609Z,258.7
2018-03-02T17:14:00.611Z,229.9
2018-03-02T17:15:00.846Z,204.8
2018-03-02T17:16:00.643Z,181.8
2018-03-02T17:17:00.666Z,160.5
2018-03-02T17:18:00.638Z,140.7
2018-03-02T17:19:00.607Z,122.5
2018-03-02T17:20:00.861Z,106.0
2018-03-02T17:21:00.683Z,91.9
2018-03-02T17:22:00.643Z,80.5
2018-03-02T17:23:00.644Z,71.3
2018-03-02T17:24:00.643Z,63.4
2018-03-02T17:25:00.848Z,56.3
2018-03-02T17:26:00.641Z,49.7
2018-03-02T17:27:00.613Z,43.7
2018-03-02T17:28:00.706Z,37.9
2018-03-02T17:29:00.641Z,32.3
2018-03-02T17:30:00.864Z,27.4
2018-03-02T17:31:00.644Z,23.2
2018-03-02T17:32:00.645Z,19.8
2018-03-02T17:33:00.646Z,17.1
2018-03-02T17:34:00.644Z,14.9
2018-03-02T17:35:00.872Z,12.9
2018-03-02T17:36:00.611Z,11.0
2018-03-02T17:37:00.679Z,9.5
2018-03-02T17:38:00.648Z,8.3
2018-03-02T17:39:00.648Z,7.2
2018-03-02T17:40:00.826Z,6.3
2018-03-02T17:41:00.645Z,5.4
2018-03-02T17:42:00.647Z,4.7
2018-03-02T17:43:00.652Z,4.0
2018-03-02T17:44:00.658Z,3.4
2018-03-02T17:45:00.820Z,2.9
2018-03-02T17:46:00.644Z,2.5
2018-03-02T17:47:00.674Z,2.1
2018-03-02T17:48:00.614Z,1.9
2018-03-02T17:49:00.613Z,1.6
2018-03-02T17:50:00.822Z,1.3
2018-03-02T17:51:00.622Z,1.1
2018-03-02T17:52:00.743Z,0.9
2018-03-02T17:53:00.644Z,0.8
2018-03-02T17:54:00.625Z,0.7
2018-03-02T17:55:00.818Z,0.5
2018-03-02T17:57:00.679Z,0.4
2018-03-02T17:58:00.655Z,0.3
2018-03-02T18:00:00.952Z,0.2
2018-03-02T18:01:00.667Z,0.1
